Terminal Aerodrome Forecast
Issued by NWS

Home | Current Version | Previous Version | Text Only | Print | Product List | Glossary On
Versions: 1 2 3 4 5 6 7 8 9 10 11 12 13 14 15 16 17 18 19 20 21 22 23 24
000
FTUS41 KPHI 081300 AAA
TAFMIV
TAF AMD
KMIV 081300Z 0813/0912 00000KT 3SM BR OVC045
     FM081400 26005KT 6SM HZ VCSH OVC050
     FM081700 29011G19KT P6SM SCT060
     FM090300 29009KT P6SM FEW100=

USA.gov is the U.S. government's official web portal to all federal, state and local government web resources and services.